sensor_id;sensor_type;location;lat;lon;timestamp;P1;durP1;ratioP1;P2;durP2;ratioP2
79005;SDS011;69202;45.498;-73.582;2024-01-06T00:02:00;4.60;;;3.47;;
79005;SDS011;69202;45.498;-73.582;2024-01-06T00:04:26;5.50;;;3.78;;
79005;SDS011;69202;45.498;-73.582;2024-01-06T00:06:53;6.85;;;3.20;;
79005;SDS011;69202;45.498;-73.582;2024-01-06T00:09:19;4.93;;;2.90;;
79005;SDS011;69202;45.498;-73.582;2024-01-06T00:11:44;5.63;;;3.00;;
79005;SDS011;69202;45.498;-73.582;2024-01-06T00:14:10;6.43;;;3.33;;
79005;SDS011;69202;45.498;-73.582;2024-01-06T00:16:39;7.90;;;4.00;;
79005;SDS011;69202;45.498;-73.582;2024-01-06T00:19:05;5.47;;;3.60;;
79005;SDS011;69202;45.498;-73.582;2024-01-06T00:21:31;4.60;;;3.17;;
79005;SDS011;69202;45.498;-73.582;2024-01-06T00:23:57;7.15;;;3.40;;
79005;SDS011;69202;45.498;-73.582;2024-01-06T00:26:23;5.63;;;3.22;;
79005;SDS011;69202;45.498;-73.582;2024-01-06T00:28:52;4.93;;;3.15;;
79005;SDS011;69202;45.498;-73.582;2024-01-06T00:31:18;6.05;;;3.60;;
79005;SDS011;69202;45.498;-73.582;2024-01-06T00:33:44;6.53;;;3.53;;
79005;SDS011;69202;45.498;-73.582;2024-01-06T00:36:10;6.32;;;3.15;;
79005;SDS011;69202;45.498;-73.582;2024-01-06T00:38:36;4.97;;;3.05;;
79005;SDS011;69202;45.498;-73.582;2024-01-06T00:41:02;3.95;;;2.35;;
79005;SDS011;69202;45.498;-73.582;2024-01-06T00:43:28;5.65;;;3.30;;
79005;SDS011;69202;45.498;-73.582;2024-01-06T00:45:54;4.32;;;2.75;;
79005;SDS011;69202;45.498;-73.582;2024-01-06T00:48:20;5.72;;;1.98;;
79005;SDS011;69202;45.498;-73.582;2024-01-06T00:50:46;4.82;;;3.10;;
79005;SDS011;69202;45.498;-73.582;2024-01-06T00:53:12;4.13;;;2.30;;
79005;SDS011;69202;45.498;-73.582;2024-01-06T00:55:38;3.85;;;2.13;;
79005;SDS011;69202;45.498;-73.582;2024-01-06T00:58:04;6.68;;;2.45;;
79005;SDS011;69202;45.498;-73.582;2024-01-06T01:00:30;4.57;;;2.30;;
79005;SDS011;69202;45.498;-73.582;2024-01-06T01:02:56;3.53;;;2.22;;
79005;SDS011;69202;45.498;-73.582;2024-01-06T01:05:22;2.97;;;2.22;;
79005;SDS011;69202;45.498;-73.582;2024-01-06T01:07:48;4.20;;;2.80;;
79005;SDS011;69202;45.498;-73.582;2024-01-06T01:10:13;4.78;;;2.40;;
79005;SDS011;69202;45.498;-73.582;2024-01-06T01:12:39;4.65;;;2.25;;
79005;SDS011;69202;45.498;-73.582;2024-01-06T01:15:05;3.70;;;2.22;;
79005;SDS011;69202;45.498;-73.582;2024-01-06T01:17:32;2.30;;;1.88;;
79005;SDS011;69202;45.498;-73.582;2024-01-06T01:19:58;5.88;;;2.30;;
79005;SDS011;69202;45.498;-73.582;2024-01-06T01:22:24;3.30;;;2.38;;
79005;SDS011;69202;45.498;-73.582;2024-01-06T01:24:49;3.67;;;2.58;;
79005;SDS011;69202;45.498;-73.582;2024-01-06T01:27:15;2.80;;;2.05;;
79005;SDS011;69202;45.498;-73.582;2024-01-06T01:29:41;2.45;;;1.75;;
79005;SDS011;69202;45.498;-73.582;2024-01-06T01:32:07;5.13;;;2.40;;
79005;SDS011;69202;45.498;-73.582;2024-01-06T01:34:33;4.07;;;2.47;;
79005;SDS011;69202;45.498;-73.582;2024-01-06T01:36:59;4.18;;;2.60;;
79005;SDS011;69202;45.498;-73.582;2024-01-06T01:39:25;3.55;;;1.98;;
79005;SDS011;69202;45.498;-73.582;2024-01-06T01:41:51;2.30;;;1.50;;
79005;SDS011;69202;45.498;-73.582;2024-01-06T01:44:17;4.45;;;1.90;;
79005;SDS011;69202;45.498;-73.582;2024-01-06T01:46:43;3.42;;;1.75;;
79005;SDS011;69202;45.498;-73.582;2024-01-06T01:49:09;2.83;;;1.67;;
79005;SDS011;69202;45.498;-73.582;2024-01-06T01:51:35;2.15;;;1.48;;
79005;SDS011;69202;45.498;-73.582;2024-01-06T01:54:02;2.85;;;1.55;;
79005;SDS011;69202;45.498;-73.582;2024-01-06T01:56:31;2.75;;;1.40;;
79005;SDS011;69202;45.498;-73.582;2024-01-06T01:59:09;3.70;;;2.00;;
79005;SDS011;69202;45.498;-73.582;2024-01-06T02:01:37;2.80;;;2.00;;
79005;SDS011;69202;45.498;-73.582;2024-01-06T02:04:03;6.93;;;2.63;;
79005;SDS011;69202;45.498;-73.582;2024-01-06T02:06:29;3.67;;;2.00;;
79005;SDS011;69202;45.498;-73.582;2024-01-06T02:08:55;3.95;;;2.60;;
79005;SDS011;69202;45.498;-73.582;2024-01-06T02:11:21;3.60;;;2.70;;
79005;SDS011;69202;45.498;-73.582;2024-01-06T02:13:47;4.20;;;2.42;;
79005;SDS011;69202;45.498;-73.582;2024-01-06T02:16:13;4.28;;;2.70;;
79005;SDS011;69202;45.498;-73.582;2024-01-06T02:18:39;4.55;;;2.78;;
79005;SDS011;69202;45.498;-73.582;2024-01-06T02:21:06;5.38;;;2.92;;
79005;SDS011;69202;45.498;-73.582;2024-01-06T02:23:34;2.60;;;1.75;;
79005;SDS011;69202;45.498;-73.582;2024-01-06T02:26:01;2.95;;;1.85;;
79005;SDS011;69202;45.498;-73.582;2024-01-06T02:28:27;4.28;;;2.10;;
79005;SDS011;69202;45.498;-73.582;2024-01-06T02:30:53;3.42;;;1.90;;
79005;SDS011;69202;45.498;-73.582;2024-01-06T02:33:19;5.60;;;2.47;;
79005;SDS011;69202;45.498;-73.582;2024-01-06T02:35:45;4.72;;;2.90;;
79005;SDS011;69202;45.498;-73.582;2024-01-06T02:38:11;3.13;;;2.00;;
79005;SDS011;69202;45.498;-73.582;2024-01-06T02:40:37;5.88;;;3.30;;
79005;SDS011;69202;45.498;-73.582;2024-01-06T02:43:03;2.72;;;2.20;;
79005;SDS011;69202;45.498;-73.582;2024-01-06T02:45:29;4.60;;;2.92;;
79005;SDS011;69202;45.498;-73.582;2024-01-06T02:47:55;4.72;;;2.05;;
79005;SDS011;69202;45.498;-73.582;2024-01-06T02:50:21;3.38;;;2.50;;
79005;SDS011;69202;45.498;-73.582;2024-01-06T02:52:47;3.80;;;2.83;;
79005;SDS011;69202;45.498;-73.582;2024-01-06T02:55:13;3.28;;;2.50;;
79005;SDS011;69202;45.498;-73.582;2024-01-06T02:57:39;3.67;;;2.58;;
79005;SDS011;69202;45.498;-73.582;2024-01-06T03:00:08;3.70;;;3.13;;
79005;SDS011;69202;45.498;-73.582;2024-01-06T03:02:34;3.97;;;3.13;;
79005;SDS011;69202;45.498;-73.582;2024-01-06T03:05:01;2.90;;;2.42;;
79005;SDS011;69202;45.498;-73.582;2024-01-06T03:07:27;4.35;;;3.08;;
79005;SDS011;69202;45.498;-73.582;2024-01-06T03:09:53;4.25;;;3.13;;
79005;SDS011;69202;45.498;-73.582;2024-01-06T03:12:19;4.28;;;2.88;;
79005;SDS011;69202;45.498;-73.582;2024-01-06T03:14:45;4.55;;;3.08;;
79005;SDS011;69202;45.498;-73.582;2024-01-06T03:17:11;3.53;;;2.70;;
79005;SDS011;69202;45.498;-73.582;2024-01-06T03:19:37;3.60;;;2.50;;
79005;SDS011;69202;45.498;-73.582;2024-01-06T03:22:05;4.30;;;3.15;;
79005;SDS011;69202;45.498;-73.582;2024-01-06T03:24:31;4.22;;;2.70;;
79005;SDS011;69202;45.498;-73.582;2024-01-06T03:26:57;2.45;;;1.80;;
79005;SDS011;69202;45.498;-73.582;2024-01-06T03:29:23;4.75;;;2.70;;
79005;SDS011;69202;45.498;-73.582;2024-01-06T03:31:49;5.68;;;3.30;;
79005;SDS011;69202;45.498;-73.582;2024-01-06T03:34:15;3.72;;;2.45;;
79005;SDS011;69202;45.498;-73.582;2024-01-06T03:36:41;3.83;;;2.72;;
79005;SDS011;69202;45.498;-73.582;2024-01-06T03:39:07;4.10;;;2.67;;
79005;SDS011;69202;45.498;-73.582;2024-01-06T03:41:33;4.80;;;2.45;;
79005;SDS011;69202;45.498;-73.582;2024-01-06T03:43:59;5.82;;;3.88;;
79005;SDS011;69202;45.498;-73.582;2024-01-06T03:46:25;3.53;;;2.95;;
79005;SDS011;69202;45.498;-73.582;2024-01-06T03:48:51;4.88;;;3.53;;
79005;SDS011;69202;45.498;-73.582;2024-01-06T03:51:16;5.88;;;3.75;;
79005;SDS011;69202;45.498;-73.582;2024-01-06T03:53:42;3.88;;;2.30;;
79005;SDS011;69202;45.498;-73.582;2024-01-06T03:56:08;3.15;;;1.85;;
79005;SDS011;69202;45.498;-73.582;2024-01-06T03:58:34;3.47;;;2.72;;
79005;SDS011;69202;45.498;-73.582;2024-01-06T04:01:00;6.57;;;3.10;;
79005;SDS011;69202;45.498;-73.582;2024-01-06T04:03:28;5.18;;;3.63;;
79005;SDS011;69202;45.498;-73.582;2024-01-06T04:05:56;3.55;;;2.10;;
79005;SDS011;69202;45.498;-73.582;2024-01-06T04:08:21;3.92;;;3.10;;
79005;SDS011;69202;45.498;-73.582;2024-01-06T04:10:47;4.25;;;2.80;;
79005;SDS011;69202;45.498;-73.582;2024-01-06T04:13:15;6.57;;;3.70;;
79005;SDS011;69202;45.498;-73.582;2024-01-06T04:15:41;5.78;;;3.22;;
79005;SDS011;69202;45.498;-73.582;2024-01-06T04:18:07;4.93;;;3.03;;
79005;SDS011;69202;45.498;-73.582;2024-01-06T04:20:34;4.38;;;2.72;;
79005;SDS011;69202;45.498;-73.582;2024-01-06T04:23:00;2.97;;;2.25;;
79005;SDS011;69202;45.498;-73.582;2024-01-06T04:25:26;4.07;;;3.10;;
79005;SDS011;69202;45.498;-73.582;2024-01-06T04:27:51;6.22;;;3.30;;
79005;SDS011;69202;45.498;-73.582;2024-01-06T04:30:17;7.75;;;3.50;;
79005;SDS011;69202;45.498;-73.582;2024-01-06T04:32:45;4.35;;;2.97;;
79005;SDS011;69202;45.498;-73.582;2024-01-06T04:35:13;3.53;;;2.90;;
79005;SDS011;69202;45.498;-73.582;2024-01-06T04:37:40;4.35;;;2.75;;
79005;SDS011;69202;45.498;-73.582;2024-01-06T04:40:06;3.92;;;2.67;;
79005;SDS011;69202;45.498;-73.582;2024-01-06T04:42:33;3.05;;;2.50;;
79005;SDS011;69202;45.498;-73.582;2024-01-06T04:44:59;3.20;;;2.47;;
79005;SDS011;69202;45.498;-73.582;2024-01-06T04:47:25;5.82;;;2.60;;
79005;SDS011;69202;45.498;-73.582;2024-01-06T04:49:52;4.82;;;3.20;;
79005;SDS011;69202;45.498;-73.582;2024-01-06T04:52:18;4.20;;;2.97;;
79005;SDS011;69202;45.498;-73.582;2024-01-06T04:54:46;3.10;;;2.55;;
79005;SDS011;69202;45.498;-73.582;2024-01-06T04:57:13;2.95;;;2.55;;
79005;SDS011;69202;45.498;-73.582;2024-01-06T04:59:39;4.88;;;3.30;;
79005;SDS011;69202;45.498;-73.582;2024-01-06T05:02:05;4.97;;;3.40;;
79005;SDS011;69202;45.498;-73.582;2024-01-06T05:04:32;5.35;;;3.30;;
79005;SDS011;69202;45.498;-73.582;2024-01-06T05:06:58;4.05;;;3.08;;
79005;SDS011;69202;45.498;-73.582;2024-01-06T05:09:27;5.85;;;3.47;;
79005;SDS011;69202;45.498;-73.582;2024-01-06T05:11:53;5.63;;;3.47;;
79005;SDS011;69202;45.498;-73.582;2024-01-06T05:14:18;4.10;;;3.10;;
79005;SDS011;69202;45.498;-73.582;2024-01-06T05:16:44;5.05;;;3.05;;
79005;SDS011;69202;45.498;-73.582;2024-01-06T05:19:11;3.65;;;2.60;;
79005;SDS011;69202;45.498;-73.582;2024-01-06T05:21:36;3.92;;;2.45;;
79005;SDS011;69202;45.498;-73.582;2024-01-06T05:24:03;2.88;;;2.03;;
79005;SDS011;69202;45.498;-73.582;2024-01-06T05:26:29;3.30;;;2.58;;
79005;SDS011;69202;45.498;-73.582;2024-01-06T05:28:55;3.38;;;2.38;;
79005;SDS011;69202;45.498;-73.582;2024-01-06T05:31:22;3.45;;;2.35;;
79005;SDS011;69202;45.498;-73.582;2024-01-06T05:33:48;2.85;;;1.52;;
79005;SDS011;69202;45.498;-73.582;2024-01-06T05:36:13;4.72;;;2.45;;
79005;SDS011;69202;45.498;-73.582;2024-01-06T05:38:45;3.67;;;2.40;;
79005;SDS011;69202;45.498;-73.582;2024-01-06T05:41:11;3.47;;;2.15;;
79005;SDS011;69202;45.498;-73.582;2024-01-06T05:43:37;1.60;;;1.40;;
79005;SDS011;69202;45.498;-73.582;2024-01-06T05:46:03;2.72;;;2.00;;
79005;SDS011;69202;45.498;-73.582;2024-01-06T05:48:29;4.30;;;2.05;;
79005;SDS011;69202;45.498;-73.582;2024-01-06T05:50:56;4.45;;;2.15;;
79005;SDS011;69202;45.498;-73.582;2024-01-06T05:53:22;4.93;;;2.25;;
79005;SDS011;69202;45.498;-73.582;2024-01-06T05:55:48;3.72;;;1.85;;
79005;SDS011;69202;45.498;-73.582;2024-01-06T05:58:14;4.85;;;2.22;;
79005;SDS011;69202;45.498;-73.582;2024-01-06T06:00:40;3.28;;;2.13;;
79005;SDS011;69202;45.498;-73.582;2024-01-06T06:03:06;3.42;;;2.47;;
79005;SDS011;69202;45.498;-73.582;2024-01-06T06:05:33;2.50;;;2.25;;
79005;SDS011;69202;45.498;-73.582;2024-01-06T06:07:59;3.72;;;2.70;;
79005;SDS011;69202;45.498;-73.582;2024-01-06T06:10:24;5.03;;;2.50;;
79005;SDS011;69202;45.498;-73.582;2024-01-06T06:13:05;5.65;;;2.53;;
79005;SDS011;69202;45.498;-73.582;2024-01-06T06:15:31;3.05;;;2.25;;
79005;SDS011;69202;45.498;-73.582;2024-01-06T06:17:58;4.15;;;2.22;;
79005;SDS011;69202;45.498;-73.582;2024-01-06T06:20:26;4.85;;;2.20;;
79005;SDS011;69202;45.498;-73.582;2024-01-06T06:22:52;3.55;;;2.53;;
79005;SDS011;69202;45.498;-73.582;2024-01-06T06:25:18;3.17;;;2.28;;
79005;SDS011;69202;45.498;-73.582;2024-01-06T06:27:44;4.53;;;2.88;;
79005;SDS011;69202;45.498;-73.582;2024-01-06T06:30:10;2.75;;;1.90;;
79005;SDS011;69202;45.498;-73.582;2024-01-06T06:32:36;2.75;;;2.17;;
79005;SDS011;69202;45.498;-73.582;2024-01-06T06:35:02;3.78;;;2.38;;
79005;SDS011;69202;45.498;-73.582;2024-01-06T06:37:29;4.28;;;2.22;;
79005;SDS011;69202;45.498;-73.582;2024-01-06T06:39:54;3.58;;;2.20;;
79005;SDS011;69202;45.498;-73.582;2024-01-06T06:42:20;6.30;;;2.60;;
79005;SDS011;69202;45.498;-73.582;2024-01-06T06:44:46;4.18;;;2.80;;
79005;SDS011;69202;45.498;-73.582;2024-01-06T06:47:12;4.78;;;2.28;;
79005;SDS011;69202;45.498;-73.582;2024-01-06T06:49:38;3.30;;;2.30;;
79005;SDS011;69202;45.498;-73.582;2024-01-06T06:52:04;3.90;;;2.17;;
79005;SDS011;69202;45.498;-73.582;2024-01-06T06:54:32;3.80;;;2.55;;
79005;SDS011;69202;45.498;-73.582;2024-01-06T06:56:58;4.55;;;2.38;;
79005;SDS011;69202;45.498;-73.582;2024-01-06T06:59:24;3.58;;;1.90;;
79005;SDS011;69202;45.498;-73.582;2024-01-06T07:01:51;4.80;;;1.90;;
79005;SDS011;69202;45.498;-73.582;2024-01-06T07:04:17;3.92;;;2.10;;
79005;SDS011;69202;45.498;-73.582;2024-01-06T07:06:45;1.95;;;1.38;;
79005;SDS011;69202;45.498;-73.582;2024-01-06T07:09:11;2.47;;;1.48;;
79005;SDS011;69202;45.498;-73.582;2024-01-06T07:11:37;2.35;;;1.55;;
79005;SDS011;69202;45.498;-73.582;2024-01-06T07:14:02;4.00;;;1.48;;
79005;SDS011;69202;45.498;-73.582;2024-01-06T07:16:28;7.05;;;1.50;;
79005;SDS011;69202;45.498;-73.582;2024-01-06T07:18:54;2.63;;;1.60;;
79005;SDS011;69202;45.498;-73.582;2024-01-06T07:21:20;5.22;;;1.95;;
79005;SDS011;69202;45.498;-73.582;2024-01-06T07:23:48;3.20;;;1.83;;
79005;SDS011;69202;45.498;-73.582;2024-01-06T07:26:15;3.20;;;1.42;;
79005;SDS011;69202;45.498;-73.582;2024-01-06T07:28:44;3.45;;;2.17;;
79005;SDS011;69202;45.498;-73.582;2024-01-06T07:31:10;2.75;;;1.70;;
79005;SDS011;69202;45.498;-73.582;2024-01-06T07:33:36;3.35;;;1.65;;
79005;SDS011;69202;45.498;-73.582;2024-01-06T07:36:03;1.90;;;1.13;;
79005;SDS011;69202;45.498;-73.582;2024-01-06T07:38:30;3.42;;;1.10;;
79005;SDS011;69202;45.498;-73.582;2024-01-06T07:40:56;2.45;;;1.10;;
79005;SDS011;69202;45.498;-73.582;2024-01-06T07:43:22;1.70;;;0.88;;
79005;SDS011;69202;45.498;-73.582;2024-01-06T07:45:49;1.73;;;1.10;;
79005;SDS011;69202;45.498;-73.582;2024-01-06T07:48:16;1.42;;;1.15;;
79005;SDS011;69202;45.498;-73.582;2024-01-06T07:50:42;2.70;;;1.10;;
79005;SDS011;69202;45.498;-73.582;2024-01-06T07:53:08;1.70;;;1.10;;
79005;SDS011;69202;45.498;-73.582;2024-01-06T07:55:34;1.15;;;0.80;;
79005;SDS011;69202;45.498;-73.582;2024-01-06T07:58:00;3.65;;;1.20;;
79005;SDS011;69202;45.498;-73.582;2024-01-06T08:00:26;2.83;;;1.35;;
79005;SDS011;69202;45.498;-73.582;2024-01-06T08:02:52;1.98;;;1.10;;
79005;SDS011;69202;45.498;-73.582;2024-01-06T08:05:18;1.27;;;0.80;;
79005;SDS011;69202;45.498;-73.582;2024-01-06T08:07:44;1.58;;;0.80;;
79005;SDS011;69202;45.498;-73.582;2024-01-06T08:10:10;3.90;;;0.90;;
79005;SDS011;69202;45.498;-73.582;2024-01-06T08:12:36;3.80;;;1.10;;
79005;SDS011;69202;45.498;-73.582;2024-01-06T08:15:02;1.58;;;0.70;;
79005;SDS011;69202;45.498;-73.582;2024-01-06T08:17:29;1.55;;;0.82;;
79005;SDS011;69202;45.498;-73.582;2024-01-06T08:19:55;1.67;;;0.90;;
79005;SDS011;69202;45.498;-73.582;2024-01-06T08:22:21;2.65;;;0.98;;
79005;SDS011;69202;45.498;-73.582;2024-01-06T08:24:47;1.75;;;1.02;;
79005;SDS011;69202;45.498;-73.582;2024-01-06T08:27:13;6.15;;;1.08;;
79005;SDS011;69202;45.498;-73.582;2024-01-06T08:29:39;1.77;;;0.80;;
79005;SDS011;69202;45.498;-73.582;2024-01-06T08:32:05;1.65;;;1.10;;
79005;SDS011;69202;45.498;-73.582;2024-01-06T08:34:31;4.00;;;1.00;;
79005;SDS011;69202;45.498;-73.582;2024-01-06T08:36:57;2.72;;;0.90;;
79005;SDS011;69202;45.498;-73.582;2024-01-06T08:39:23;1.23;;;0.85;;
79005;SDS011;69202;45.498;-73.582;2024-01-06T08:41:49;4.05;;;1.05;;
79005;SDS011;69202;45.498;-73.582;2024-01-06T08:44:16;1.95;;;1.02;;
79005;SDS011;69202;45.498;-73.582;2024-01-06T08:46:41;2.17;;;1.10;;
79005;SDS011;69202;45.498;-73.582;2024-01-06T08:49:07;2.70;;;0.93;;
79005;SDS011;69202;45.498;-73.582;2024-01-06T08:51:33;1.70;;;1.00;;
79005;SDS011;69202;45.498;-73.582;2024-01-06T08:54:00;2.28;;;0.90;;
79005;SDS011;69202;45.498;-73.582;2024-01-06T08:56:30;1.63;;;0.80;;
79005;SDS011;69202;45.498;-73.582;2024-01-06T08:58:56;1.23;;;0.70;;
79005;SDS011;69202;45.498;-73.582;2024-01-06T09:01:22;4.82;;;1.00;;
79005;SDS011;69202;45.498;-73.582;2024-01-06T09:03:48;2.25;;;0.90;;
79005;SDS011;69202;45.498;-73.582;2024-01-06T09:06:15;1.63;;;0.70;;
79005;SDS011;69202;45.498;-73.582;2024-01-06T09:08:41;3.80;;;0.80;;
79005;SDS011;69202;45.498;-73.582;2024-01-06T09:11:07;2.45;;;1.20;;
79005;SDS011;69202;45.498;-73.582;2024-01-06T09:13:33;1.15;;;0.63;;
79005;SDS011;69202;45.498;-73.582;2024-01-06T09:15:59;1.45;;;0.85;;
79005;SDS011;69202;45.498;-73.582;2024-01-06T09:18:28;1.90;;;0.80;;
79005;SDS011;69202;45.498;-73.582;2024-01-06T09:20:54;1.38;;;0.63;;
79005;SDS011;69202;45.498;-73.582;2024-01-06T09:23:21;1.50;;;0.90;;
79005;SDS011;69202;45.498;-73.582;2024-01-06T09:25:47;3.55;;;1.35;;
79005;SDS011;69202;45.498;-73.582;2024-01-06T09:28:18;4.10;;;0.85;;
79005;SDS011;69202;45.498;-73.582;2024-01-06T09:30:46;1.88;;;0.70;;
79005;SDS011;69202;45.498;-73.582;2024-01-06T09:33:12;1.67;;;0.70;;
79005;SDS011;69202;45.498;-73.582;2024-01-06T09:35:42;2.97;;;0.70;;
79005;SDS011;69202;45.498;-73.582;2024-01-06T09:38:09;3.10;;;0.82;;
79005;SDS011;69202;45.498;-73.582;2024-01-06T09:40:35;2.25;;;0.80;;
79005;SDS011;69202;45.498;-73.582;2024-01-06T09:43:06;1.40;;;0.80;;
79005;SDS011;69202;45.498;-73.582;2024-01-06T09:45:32;3.42;;;0.90;;
79005;SDS011;69202;45.498;-73.582;2024-01-06T09:47:59;1.27;;;0.65;;
79005;SDS011;69202;45.498;-73.582;2024-01-06T09:50:40;1.55;;;0.88;;
79005;SDS011;69202;45.498;-73.582;2024-01-06T09:53:08;2.88;;;0.80;;
79005;SDS011;69202;45.498;-73.582;2024-01-06T09:55:36;4.20;;;0.65;;
79005;SDS011;69202;45.498;-73.582;2024-01-06T09:58:03;0.98;;;0.70;;
79005;SDS011;69202;45.498;-73.582;2024-01-06T10:00:31;1.58;;;0.70;;
79005;SDS011;69202;45.498;-73.582;2024-01-06T10:02:57;3.03;;;0.80;;
79005;SDS011;69202;45.498;-73.582;2024-01-06T10:05:23;5.47;;;0.80;;
79005;SDS011;69202;45.498;-73.582;2024-01-06T10:07:49;3.15;;;0.70;;
79005;SDS011;69202;45.498;-73.582;2024-01-06T10:10:15;1.05;;;0.70;;
79005;SDS011;69202;45.498;-73.582;2024-01-06T10:12:41;2.03;;;0.60;;
79005;SDS011;69202;45.498;-73.582;2024-01-06T10:15:08;1.77;;;0.65;;
79005;SDS011;69202;45.498;-73.582;2024-01-06T10:17:39;1.20;;;0.60;;
79005;SDS011;69202;45.498;-73.582;2024-01-06T10:20:10;4.07;;;0.70;;
79005;SDS011;69202;45.498;-73.582;2024-01-06T10:22:37;1.42;;;0.52;;
79005;SDS011;69202;45.498;-73.582;2024-01-06T10:25:06;3.00;;;0.70;;
79005;SDS011;69202;45.498;-73.582;2024-01-06T10:27:36;3.95;;;0.93;;
79005;SDS011;69202;45.498;-73.582;2024-01-06T10:30:03;4.97;;;0.57;;
79005;SDS011;69202;45.498;-73.582;2024-01-06T10:32:31;0.75;;;0.63;;
79005;SDS011;69202;45.498;-73.582;2024-01-06T10:34:59;3.15;;;0.50;;
79005;SDS011;69202;45.498;-73.582;2024-01-06T10:37:29;4.60;;;0.68;;
79005;SDS011;69202;45.498;-73.582;2024-01-06T10:40:08;2.78;;;0.80;;
79005;SDS011;69202;45.498;-73.582;2024-01-06T10:42:36;1.73;;;0.88;;
79005;SDS011;69202;45.498;-73.582;2024-01-06T10:45:06;1.63;;;1.10;;
79005;SDS011;69202;45.498;-73.582;2024-01-06T10:47:34;2.67;;;0.77;;
79005;SDS011;69202;45.498;-73.582;2024-01-06T10:50:01;1.33;;;0.70;;
79005;SDS011;69202;45.498;-73.582;2024-01-06T10:52:28;4.35;;;1.13;;
79005;SDS011;69202;45.498;-73.582;2024-01-06T10:54:54;6.35;;;1.00;;
79005;SDS011;69202;45.498;-73.582;2024-01-06T10:57:21;1.40;;;0.73;;
79005;SDS011;69202;45.498;-73.582;2024-01-06T10:59:53;5.57;;;1.00;;
79005;SDS011;69202;45.498;-73.582;2024-01-06T11:02:23;3.63;;;0.80;;
79005;SDS011;69202;45.498;-73.582;2024-01-06T11:04:53;1.08;;;0.50;;
79005;SDS011;69202;45.498;-73.582;2024-01-06T11:07:20;5.55;;;0.85;;
79005;SDS011;69202;45.498;-73.582;2024-01-06T11:12:27;3.20;;;1.00;;
79005;SDS011;69202;45.498;-73.582;2024-01-06T11:14:54;5.60;;;1.10;;
79005;SDS011;69202;45.498;-73.582;2024-01-06T11:20:23;1.98;;;0.68;;
79005;SDS011;69202;45.498;-73.582;2024-01-06T11:22:54;3.40;;;0.77;;
79005;SDS011;69202;45.498;-73.582;2024-01-06T11:25:46;0.57;;;0.57;;
79005;SDS011;69202;45.498;-73.582;2024-01-06T11:28:12;1.58;;;0.80;;
79005;SDS011;69202;45.498;-73.582;2024-01-06T11:30:39;4.82;;;0.60;;
79005;SDS011;69202;45.498;-73.582;2024-01-06T11:33:05;6.47;;;0.88;;
79005;SDS011;69202;45.498;-73.582;2024-01-06T11:35:31;0.93;;;0.60;;
79005;SDS011;69202;45.498;-73.582;2024-01-06T11:38:00;2.42;;;0.75;;
79005;SDS011;69202;45.498;-73.582;2024-01-06T11:40:36;2.15;;;0.60;;
79005;SDS011;69202;45.498;-73.582;2024-01-06T11:43:11;5.55;;;0.98;;
79005;SDS011;69202;45.498;-73.582;2024-01-06T11:45:38;3.25;;;0.57;;
79005;SDS011;69202;45.498;-73.582;2024-01-06T11:48:09;0.65;;;0.63;;
79005;SDS011;69202;45.498;-73.582;2024-01-06T11:50:38;1.42;;;0.70;;
79005;SDS011;69202;45.498;-73.582;2024-01-06T11:53:05;2.95;;;0.90;;
79005;SDS011;69202;45.498;-73.582;2024-01-06T11:55:32;10.65;;;1.05;;
79005;SDS011;69202;45.498;-73.582;2024-01-06T11:57:59;1.63;;;0.70;;
79005;SDS011;69202;45.498;-73.582;2024-01-06T12:00:31;3.95;;;0.70;;
79005;SDS011;69202;45.498;-73.582;2024-01-06T12:02:58;2.67;;;0.82;;
79005;SDS011;69202;45.498;-73.582;2024-01-06T12:05:26;4.50;;;1.20;;
79005;SDS011;69202;45.498;-73.582;2024-01-06T12:07:56;3.45;;;0.70;;
79005;SDS011;69202;45.498;-73.582;2024-01-06T12:10:24;3.33;;;0.60;;
79005;SDS011;69202;45.498;-73.582;2024-01-06T12:12:55;2.10;;;0.60;;
79005;SDS011;69202;45.498;-73.582;2024-01-06T12:15:25;7.75;;;0.77;;
79005;SDS011;69202;45.498;-73.582;2024-01-06T12:17:52;1.48;;;0.70;;
79005;SDS011;69202;45.498;-73.582;2024-01-06T12:20:18;8.18;;;0.80;;
79005;SDS011;69202;45.498;-73.582;2024-01-06T12:22:44;4.03;;;0.85;;
79005;SDS011;69202;45.498;-73.582;2024-01-06T12:25:10;1.38;;;0.60;;
79005;SDS011;69202;45.498;-73.582;2024-01-06T12:27:40;1.10;;;0.63;;
79005;SDS011;69202;45.498;-73.582;2024-01-06T12:30:11;4.60;;;1.13;;
79005;SDS011;69202;45.498;-73.582;2024-01-06T12:32:48;5.53;;;0.90;;
79005;SDS011;69202;45.498;-73.582;2024-01-06T12:35:15;11.20;;;1.17;;
79005;SDS011;69202;45.498;-73.582;2024-01-06T12:37:42;8.93;;;0.80;;
79005;SDS011;69202;45.498;-73.582;2024-01-06T12:40:09;4.28;;;0.80;;
79005;SDS011;69202;45.498;-73.582;2024-01-06T12:42:35;5.25;;;1.00;;
79005;SDS011;69202;45.498;-73.582;2024-01-06T12:45:02;4.13;;;0.65;;
79005;SDS011;69202;45.498;-73.582;2024-01-06T12:47:28;2.25;;;0.80;;
79005;SDS011;69202;45.498;-73.582;2024-01-06T12:49:54;4.82;;;0.80;;
79005;SDS011;69202;45.498;-73.582;2024-01-06T12:52:20;1.25;;;0.70;;
79005;SDS011;69202;45.498;-73.582;2024-01-06T12:54:46;9.30;;;1.13;;
79005;SDS011;69202;45.498;-73.582;2024-01-06T12:57:12;1.30;;;0.60;;
79005;SDS011;69202;45.498;-73.582;2024-01-06T12:59:38;3.72;;;0.70;;
79005;SDS011;69202;45.498;-73.582;2024-01-06T13:02:03;4.70;;;0.90;;
79005;SDS011;69202;45.498;-73.582;2024-01-06T13:04:29;1.20;;;0.60;;
79005;SDS011;69202;45.498;-73.582;2024-01-06T13:06:57;3.35;;;1.00;;
79005;SDS011;69202;45.498;-73.582;2024-01-06T13:09:23;2.75;;;0.95;;
79005;SDS011;69202;45.498;-73.582;2024-01-06T13:11:49;9.20;;;0.85;;
79005;SDS011;69202;45.498;-73.582;2024-01-06T13:14:16;7.18;;;0.95;;
79005;SDS011;69202;45.498;-73.582;2024-01-06T13:16:43;8.23;;;1.15;;
79005;SDS011;69202;45.498;-73.582;2024-01-06T13:19:09;4.40;;;0.80;;
79005;SDS011;69202;45.498;-73.582;2024-01-06T13:21:35;8.98;;;1.10;;
79005;SDS011;69202;45.498;-73.582;2024-01-06T13:24:05;1.63;;;0.80;;
79005;SDS011;69202;45.498;-73.582;2024-01-06T13:26:32;8.65;;;1.35;;
79005;SDS011;69202;45.498;-73.582;2024-01-06T13:28:59;5.65;;;0.90;;
79005;SDS011;69202;45.498;-73.582;2024-01-06T13:31:26;6.28;;;0.90;;
79005;SDS011;69202;45.498;-73.582;2024-01-06T13:33:52;1.83;;;0.73;;
79005;SDS011;69202;45.498;-73.582;2024-01-06T13:36:20;1.67;;;0.90;;
79005;SDS011;69202;45.498;-73.582;2024-01-06T13:38:46;9.02;;;0.93;;
79005;SDS011;69202;45.498;-73.582;2024-01-06T13:41:13;4.70;;;1.25;;
79005;SDS011;69202;45.498;-73.582;2024-01-06T13:43:40;3.70;;;1.08;;
79005;SDS011;69202;45.498;-73.582;2024-01-06T13:46:06;2.83;;;1.13;;
79005;SDS011;69202;45.498;-73.582;2024-01-06T13:48:32;3.92;;;0.98;;
79005;SDS011;69202;45.498;-73.582;2024-01-06T13:50:58;5.50;;;1.05;;
79005;SDS011;69202;45.498;-73.582;2024-01-06T13:53:25;5.82;;;1.17;;
79005;SDS011;69202;45.498;-73.582;2024-01-06T13:55:51;5.47;;;1.30;;
79005;SDS011;69202;45.498;-73.582;2024-01-06T13:58:17;7.75;;;1.05;;
79005;SDS011;69202;45.498;-73.582;2024-01-06T14:00:44;10.73;;;1.58;;
79005;SDS011;69202;45.498;-73.582;2024-01-06T14:03:10;5.70;;;0.90;;
79005;SDS011;69202;45.498;-73.582;2024-01-06T14:05:37;1.23;;;0.70;;
79005;SDS011;69202;45.498;-73.582;2024-01-06T14:08:05;7.50;;;1.02;;
79005;SDS011;69202;45.498;-73.582;2024-01-06T14:10:31;2.25;;;0.90;;
79005;SDS011;69202;45.498;-73.582;2024-01-06T14:12:57;4.20;;;1.10;;
79005;SDS011;69202;45.498;-73.582;2024-01-06T14:15:23;5.32;;;1.20;;
79005;SDS011;69202;45.498;-73.582;2024-01-06T14:17:51;7.47;;;1.00;;
79005;SDS011;69202;45.498;-73.582;2024-01-06T14:20:18;13.32;;;1.20;;
79005;SDS011;69202;45.498;-73.582;2024-01-06T14:22:44;5.15;;;1.13;;
79005;SDS011;69202;45.498;-73.582;2024-01-06T14:25:12;5.95;;;2.00;;